createdAt,value
2022-09-30T00:01:35.444Z,10.00
2022-09-30T00:04:03.681Z,9.96
2022-09-30T00:06:33.047Z,9.76
2022-09-30T00:09:01.744Z,9.67
2022-09-30T00:11:32.780Z,9.71
2022-09-30T00:14:01.120Z,9.72
2022-09-30T00:16:34.207Z,9.73
2022-09-30T00:19:03.790Z,9.71
2022-09-30T00:21:34.149Z,9.67
2022-09-30T00:24:02.277Z,9.65
2022-09-30T00:26:30.639Z,9.61
2022-09-30T00:29:00.045Z,9.56
2022-09-30T00:31:32.785Z,9.55
2022-09-30T00:34:10.098Z,9.51
2022-09-30T00:36:41.728Z,9.41
2022-09-30T00:39:12.147Z,9.39
2022-09-30T00:41:39.960Z,9.41
2022-09-30T00:44:48.287Z,9.43
2022-09-30T00:47:38.349Z,9.42
2022-09-30T00:50:14.940Z,9.41
2022-09-30T00:52:43.802Z,9.30
2022-09-30T00:55:27.080Z,9.29
2022-09-30T00:57:56.169Z,9.27
2022-09-30T01:00:24.297Z,9.26
2022-09-30T01:02:54.548Z,9.21
2022-09-30T01:05:24.017Z,9.19
2022-09-30T01:07:52.583Z,9.15
2022-09-30T01:10:20.775Z,9.12
2022-09-30T01:12:48.714Z,9.13
2022-09-30T01:15:17.515Z,9.12
2022-09-30T01:17:55.187Z,9.17
2022-09-30T01:20:47.526Z,9.15
2022-09-30T01:23:39.575Z,9.20
2022-09-30T01:26:37.983Z,9.23
2022-09-30T01:29:43.306Z,9.24
2022-09-30T01:32:20.033Z,9.23
2022-09-30T01:34:56.944Z,9.20
2022-09-30T01:37:29.212Z,9.20
2022-09-30T01:40:07.358Z,9.24
2022-09-30T01:42:44.310Z,9.23
2022-09-30T01:45:17.393Z,9.25
2022-09-30T01:47:51.939Z,9.27
2022-09-30T01:50:24.728Z,9.24
2022-09-30T01:53:02.761Z,9.30
2022-09-30T01:55:35.609Z,9.29
2022-09-30T01:58:10.590Z,9.25
2022-09-30T02:00:42.643Z,9.24
2022-09-30T02:03:16.653Z,9.24
2022-09-30T02:05:51.076Z,9.26
2022-09-30T02:08:22.657Z,9.29
2022-09-30T02:10:56.326Z,9.35
2022-09-30T02:13:30.977Z,9.36
2022-09-30T02:16:12.695Z,9.37
2022-09-30T02:18:46.034Z,9.39
2022-09-30T02:21:18.396Z,9.36
2022-09-30T02:23:50.426Z,9.37
2022-09-30T02:26:23.021Z,9.42
2022-09-30T02:28:55.255Z,9.44
2022-09-30T02:31:25.931Z,9.44
2022-09-30T02:33:59.654Z,9.44
2022-09-30T02:36:33.010Z,9.44
2022-09-30T02:39:04.469Z,9.43
2022-09-30T02:41:38.511Z,9.38
2022-09-30T02:44:07.045Z,9.43
2022-09-30T02:46:44.572Z,9.44
2022-09-30T02:49:22.269Z,9.41
2022-09-30T02:52:07.290Z,9.49
2022-09-30T02:54:43.639Z,9.52
2022-09-30T02:57:20.202Z,9.52
2022-09-30T02:59:51.516Z,9.54
2022-09-30T03:02:20.408Z,9.56
2022-09-30T03:04:52.012Z,9.63
2022-09-30T03:07:19.901Z,9.59
2022-09-30T03:09:48.435Z,9.57
2022-09-30T03:12:33.767Z,9.59
2022-09-30T03:15:16.285Z,9.60
2022-09-30T03:17:59.349Z,9.64
2022-09-30T03:20:38.794Z,9.65
2022-09-30T03:23:27.579Z,9.66
2022-09-30T03:26:03.054Z,9.66
2022-09-30T03:28:36.669Z,9.70
2022-09-30T03:31:12.995Z,9.73
2022-09-30T03:33:50.193Z,9.76
2022-09-30T03:36:28.459Z,9.76
2022-09-30T03:39:05.975Z,9.72
2022-09-30T03:41:40.791Z,9.69
2022-09-30T03:44:13.138Z,9.68
2022-09-30T03:46:46.539Z,9.64
2022-09-30T03:49:20.137Z,9.57
2022-09-30T03:51:51.020Z,9.59
2022-09-30T03:54:19.396Z,9.64
2022-09-30T03:56:47.970Z,9.60
2022-09-30T03:59:24.006Z,9.60
2022-09-30T04:01:52.460Z,9.54
2022-09-30T04:04:20.389Z,9.57
2022-09-30T04:06:50.087Z,9.59
2022-09-30T04:09:17.832Z,9.58
2022-09-30T04:11:46.298Z,9.56
2022-09-30T04:14:14.127Z,9.58
2022-09-30T04:16:43.347Z,9.60
2022-09-30T04:19:11.141Z,9.62
2022-09-30T04:21:39.295Z,9.65
2022-09-30T04:24:09.074Z,9.68
2022-09-30T04:26:37.211Z,9.69
2022-09-30T04:29:05.104Z,9.70
2022-09-30T04:31:33.553Z,9.67
2022-09-30T04:34:01.414Z,9.66
2022-09-30T04:36:29.078Z,9.69
2022-09-30T04:38:56.765Z,9.69
2022-09-30T04:41:26.746Z,9.71
2022-09-30T04:43:55.137Z,9.75
2022-09-30T04:46:23.017Z,9.75
2022-09-30T04:48:51.191Z,9.75
2022-09-30T04:51:21.067Z,9.78
2022-09-30T04:53:50.387Z,9.74
2022-09-30T04:56:18.844Z,9.74
2022-09-30T04:58:47.848Z,9.76
2022-09-30T05:01:17.917Z,9.78
2022-09-30T05:03:45.856Z,9.80
2022-09-30T05:06:14.523Z,9.82
2022-09-30T05:08:45.971Z,9.77
2022-09-30T05:11:18.433Z,9.79
2022-09-30T05:13:46.560Z,9.79
2022-09-30T05:16:17.271Z,9.82
2022-09-30T05:18:47.014Z,9.87
2022-09-30T05:21:17.437Z,9.82
2022-09-30T05:23:45.506Z,9.77
2022-09-30T05:26:13.211Z,9.82
2022-09-30T05:28:40.985Z,9.87
2022-09-30T05:31:08.944Z,9.84
2022-09-30T05:33:38.114Z,9.85
2022-09-30T05:36:08.941Z,9.87
2022-09-30T05:38:37.073Z,9.94
2022-09-30T05:41:11.560Z,9.97
2022-09-30T05:43:40.632Z,9.97
2022-09-30T05:46:09.271Z,10.02
2022-09-30T05:48:38.286Z,10.08
2022-09-30T05:51:07.498Z,10.11
2022-09-30T05:53:38.565Z,10.14
2022-09-30T05:56:07.269Z,10.12
2022-09-30T05:58:35.531Z,10.15
2022-09-30T06:01:13.230Z,10.20
2022-09-30T06:03:43.626Z,10.27
2022-09-30T06:06:11.433Z,10.25
2022-09-30T06:08:39.115Z,10.22
2022-09-30T06:11:12.722Z,10.24
2022-09-30T06:13:41.476Z,10.30
2022-09-30T06:16:11.185Z,10.30
2022-09-30T06:18:41.088Z,10.35
2022-09-30T06:24:01.945Z,10.44
2022-09-30T06:26:30.086Z,10.48
2022-09-30T06:28:57.784Z,10.60
2022-09-30T06:31:25.516Z,10.68
2022-09-30T06:33:53.844Z,10.69
2022-09-30T06:36:23.326Z,10.74
2022-09-30T06:38:52.921Z,10.75
2022-09-30T06:41:21.594Z,10.72
2022-09-30T06:44:00.362Z,10.73
2022-09-30T06:46:31.166Z,10.70
2022-09-30T06:49:11.906Z,10.70
2022-09-30T06:51:43.072Z,10.76
2022-09-30T06:54:10.922Z,10.80
2022-09-30T06:56:39.528Z,10.83
2022-09-30T06:59:07.231Z,10.93
2022-09-30T07:01:34.973Z,11.00
2022-09-30T07:04:08.145Z,10.99
2022-09-30T07:06:36.386Z,11.08
2022-09-30T07:09:05.683Z,11.11
2022-09-30T07:11:33.365Z,11.14
2022-09-30T07:14:01.610Z,11.14
2022-09-30T07:16:31.493Z,11.18
2022-09-30T07:18:59.856Z,11.21
2022-09-30T07:21:27.928Z,11.22
2022-09-30T07:23:56.678Z,11.23
2022-09-30T07:26:27.203Z,11.25
2022-09-30T07:28:54.892Z,11.30
2022-09-30T07:31:32.908Z,11.38
2022-09-30T07:34:03.375Z,11.47
2022-09-30T07:36:33.594Z,11.54
2022-09-30T07:39:06.812Z,11.60
2022-09-30T07:41:39.264Z,11.63
2022-09-30T07:44:12.173Z,11.72
2022-09-30T07:46:40.445Z,11.76
2022-09-30T07:49:12.897Z,11.79
2022-09-30T07:51:44.109Z,11.81
2022-09-30T07:54:15.321Z,11.84
2022-09-30T07:57:08.715Z,11.86
2022-09-30T07:59:34.665Z,11.92
2022-09-30T08:02:02.892Z,11.95
2022-09-30T08:04:30.971Z,12.03
2022-09-30T08:07:00.932Z,12.10
2022-09-30T08:09:30.928Z,12.19
2022-09-30T08:12:00.542Z,12.20
2022-09-30T08:14:29.173Z,12.22
2022-09-30T08:16:58.686Z,12.19
2022-09-30T08:19:27.573Z,12.14
2022-09-30T08:21:55.908Z,12.15
2022-09-30T08:24:26.424Z,12.13
2022-09-30T08:26:55.367Z,12.19
2022-09-30T08:29:50.094Z,12.24
2022-09-30T08:32:12.786Z,12.19
2022-09-30T08:34:40.514Z,12.28
2022-09-30T08:37:10.621Z,12.41
2022-09-30T08:39:38.448Z,12.41
2022-09-30T08:42:41.430Z,12.54
2022-09-30T08:45:23.451Z,12.64
2022-09-30T08:48:02.167Z,12.65
2022-09-30T08:50:35.649Z,12.59
2022-09-30T08:53:10.217Z,12.55
2022-09-30T08:55:42.006Z,12.52
2022-09-30T08:58:20.518Z,12.53
2022-09-30T09:00:51.233Z,12.48
2022-09-30T09:03:20.817Z,12.51
2022-09-30T09:05:54.196Z,12.51
2022-09-30T09:08:30.435Z,12.57
2022-09-30T09:11:08.959Z,12.64
2022-09-30T09:13:48.331Z,12.72
2022-09-30T09:16:26.676Z,12.73
2022-09-30T09:19:04.730Z,12.77
2022-09-30T09:21:44.969Z,12.73
2022-09-30T09:24:17.199Z,12.70
2022-09-30T09:26:45.104Z,12.72
2022-09-30T09:29:27.061Z,12.72
2022-09-30T09:31:57.188Z,12.76
2022-09-30T09:34:27.039Z,12.82
2022-09-30T09:37:07.382Z,12.89
2022-09-30T09:40:07.707Z,12.93
2022-09-30T09:42:59.118Z,13.01
2022-09-30T09:45:33.407Z,13.01
2022-09-30T09:48:03.026Z,13.05
2022-09-30T09:50:41.932Z,13.03
2022-09-30T09:53:24.826Z,13.18
2022-09-30T09:55:57.089Z,13.34
2022-09-30T09:58:26.335Z,13.52
2022-09-30T10:01:13.800Z,13.71
2022-09-30T10:03:43.621Z,13.87
2022-09-30T10:06:12.821Z,13.93
2022-09-30T10:08:53.422Z,13.98
2022-09-30T10:11:23.931Z,14.11
2022-09-30T10:13:56.442Z,14.19
2022-09-30T10:16:29.234Z,14.25
2022-09-30T10:18:59.314Z,14.29
2022-09-30T10:21:28.868Z,14.30
2022-09-30T10:23:57.653Z,14.35
2022-09-30T10:29:04.013Z,14.39
2022-09-30T10:31:33.873Z,14.46
2022-09-30T10:34:12.695Z,14.45
2022-09-30T10:36:43.323Z,14.42
2022-09-30T10:39:23.533Z,14.42
2022-09-30T10:41:52.630Z,14.49
2022-09-30T10:44:24.589Z,14.59
2022-09-30T10:46:54.311Z,14.65
2022-09-30T10:49:29.659Z,14.75
2022-09-30T10:51:58.354Z,14.87
2022-09-30T10:54:43.957Z,14.95
2022-09-30T10:57:16.757Z,15.03
2022-09-30T10:59:46.385Z,15.11
2022-09-30T11:02:31.848Z,15.20
2022-09-30T11:05:13.439Z,15.43
2022-09-30T11:07:47.120Z,15.58
2022-09-30T11:10:28.716Z,15.59
2022-09-30T11:13:02.828Z,15.74
2022-09-30T11:15:37.341Z,15.84
2022-09-30T11:18:08.923Z,15.97
2022-09-30T11:20:44.859Z,16.15
2022-09-30T11:23:21.830Z,16.06
2022-09-30T11:26:01.307Z,16.06
2022-09-30T11:28:54.068Z,16.09
2022-09-30T11:31:31.496Z,16.06
2022-09-30T11:34:12.747Z,16.14
2022-09-30T11:36:50.780Z,16.28
2022-09-30T11:39:37.382Z,16.32
2022-09-30T11:42:13.954Z,16.50
2022-09-30T11:44:45.736Z,16.64
2022-09-30T11:47:45.995Z,16.73
2022-09-30T11:50:32.158Z,16.62
2022-09-30T11:53:14.200Z,16.56
2022-09-30T11:55:57.501Z,16.59
2022-09-30T11:58:41.116Z,16.67
2022-09-30T12:01:21.492Z,16.80
2022-09-30T12:03:58.042Z,16.91
2022-09-30T12:06:33.408Z,16.91
2022-09-30T12:09:10.444Z,16.93
2022-09-30T12:11:46.435Z,16.85
2022-09-30T12:14:20.890Z,16.90
2022-09-30T12:16:51.337Z,16.99
2022-09-30T12:19:25.924Z,17.18
2022-09-30T12:22:00.013Z,17.25
2022-09-30T12:24:35.745Z,17.25
2022-09-30T12:27:04.330Z,17.39
2022-09-30T12:29:56.015Z,17.46
2022-09-30T12:32:44.125Z,17.62
2022-09-30T12:35:37.159Z,17.79
2022-09-30T12:38:21.227Z,17.76
2022-09-30T12:41:08.523Z,17.47
2022-09-30T12:44:05.998Z,17.29
2022-09-30T12:46:50.641Z,17.21
2022-09-30T12:49:23.646Z,17.26
2022-09-30T12:51:55.583Z,17.26
2022-09-30T12:54:28.317Z,17.27
2022-09-30T12:57:00.556Z,17.28
2022-09-30T12:59:33.500Z,17.25
2022-09-30T13:02:03.683Z,17.21
2022-09-30T13:04:37.002Z,17.16
2022-09-30T13:07:23.295Z,17.20
2022-09-30T13:09:59.289Z,17.27
2022-09-30T13:12:41.424Z,17.31
2022-09-30T13:15:43.853Z,17.27
2022-09-30T13:18:47.915Z,17.24
2022-09-30T13:21:21.780Z,17.16
2022-09-30T13:23:50.735Z,17.24
2022-09-30T13:26:43.076Z,17.39
2022-09-30T13:29:39.207Z,17.42
2022-09-30T13:32:10.531Z,17.54
2022-09-30T13:34:58.113Z,17.56
2022-09-30T13:37:38.830Z,17.20
2022-09-30T13:40:16.799Z,16.89
2022-09-30T13:42:52.862Z,16.81
2022-09-30T13:45:31.173Z,16.76
2022-09-30T13:48:11.121Z,16.84
2022-09-30T13:50:46.504Z,16.92
2022-09-30T13:53:20.603Z,17.05
2022-09-30T13:55:53.644Z,17.08
2022-09-30T13:58:39.165Z,17.06
2022-09-30T14:01:21.276Z,17.14
2022-09-30T14:04:15.050Z,17.20
2022-09-30T14:06:53.338Z,17.10
2022-09-30T14:09:38.765Z,16.95
2022-09-30T14:12:16.350Z,16.92
2022-09-30T14:15:18.158Z,16.82
2022-09-30T14:18:22.339Z,16.83
2022-09-30T14:21:04.854Z,16.80
2022-09-30T14:23:32.625Z,16.72
2022-09-30T14:26:11.533Z,16.67
2022-09-30T14:28:46.787Z,16.62
2022-09-30T14:31:16.209Z,16.63
2022-09-30T14:33:52.014Z,16.64
2022-09-30T14:36:22.982Z,16.59
2022-09-30T14:38:54.516Z,16.60
2022-09-30T14:41:24.501Z,16.57
2022-09-30T14:43:55.353Z,16.54
2022-09-30T14:46:35.613Z,16.45
2022-09-30T14:49:09.544Z,16.43
2022-09-30T14:51:43.203Z,16.43
2022-09-30T14:54:19.466Z,16.43
2022-09-30T14:56:48.160Z,16.40
2022-09-30T14:59:19.592Z,16.46
2022-09-30T15:01:50.084Z,16.48
2022-09-30T15:04:23.961Z,16.53
2022-09-30T15:06:53.018Z,16.42
2022-09-30T15:09:28.766Z,16.41
2022-09-30T15:11:58.996Z,16.38
2022-09-30T15:14:27.066Z,16.35
2022-09-30T15:16:57.009Z,16.25
2022-09-30T15:19:28.104Z,16.19
2022-09-30T15:21:58.650Z,16.23
2022-09-30T15:24:32.124Z,16.18
2022-09-30T15:27:01.708Z,16.12
2022-09-30T15:29:29.488Z,16.09
2022-09-30T15:32:01.959Z,15.95
2022-09-30T15:34:32.519Z,15.61
2022-09-30T15:37:06.489Z,15.45
2022-09-30T15:39:54.029Z,15.31
2022-09-30T15:42:32.161Z,15.17
2022-09-30T15:44:59.890Z,14.95
2022-09-30T15:47:29.255Z,14.66
2022-09-30T15:49:58.313Z,14.70
2022-09-30T15:52:37.006Z,14.61
2022-09-30T15:55:36.501Z,14.53
2022-09-30T15:58:05.116Z,14.53
2022-09-30T16:00:36.405Z,14.57
2022-09-30T16:03:28.824Z,14.36
2022-09-30T16:06:08.380Z,14.47
2022-09-30T16:08:43.380Z,14.45
2022-09-30T16:11:20.464Z,14.55
2022-09-30T16:13:49.245Z,14.63
2022-09-30T16:16:22.161Z,14.58
2022-09-30T16:18:52.208Z,14.65
2022-09-30T16:21:43.799Z,14.47
2022-09-30T16:24:47.084Z,14.34
2022-09-30T16:27:25.975Z,14.66
2022-09-30T16:29:53.751Z,14.91
2022-09-30T16:32:21.607Z,15.26
2022-09-30T16:34:49.706Z,15.49
2022-09-30T16:37:21.440Z,15.55
2022-09-30T16:39:50.215Z,15.57
2022-09-30T16:42:19.314Z,15.56
2022-09-30T16:44:47.072Z,15.60
2022-09-30T16:47:16.676Z,15.58
2022-09-30T16:49:46.437Z,15.50
2022-09-30T16:52:14.951Z,15.35
2022-09-30T16:54:44.212Z,15.19
2022-09-30T16:57:14.650Z,15.03
2022-09-30T16:59:43.467Z,14.87
2022-09-30T17:02:15.713Z,14.72
2022-09-30T17:04:45.363Z,14.62
2022-09-30T17:07:14.908Z,14.51
2022-09-30T17:09:45.345Z,14.47
2022-09-30T17:12:13.217Z,14.37
2022-09-30T17:14:43.678Z,14.31
2022-09-30T17:17:13.751Z,14.23
2022-09-30T17:19:42.018Z,14.13
2022-09-30T17:22:09.698Z,14.10
2022-09-30T17:24:37.344Z,14.02
2022-09-30T17:27:07.753Z,13.97
2022-09-30T17:29:41.932Z,13.86
2022-09-30T17:32:10.408Z,13.80
2022-09-30T17:34:38.114Z,13.73
2022-09-30T17:39:39.234Z,13.74
2022-09-30T17:42:30.289Z,13.70
2022-09-30T17:44:58.445Z,13.63
2022-09-30T17:47:26.721Z,13.52
2022-09-30T17:49:55.058Z,13.44
2022-09-30T17:52:23.731Z,13.38
2022-09-30T17:54:52.702Z,13.35
2022-09-30T17:57:22.175Z,13.23
2022-09-30T17:59:50.142Z,13.14
2022-09-30T18:02:18.084Z,13.05
2022-09-30T18:04:46.515Z,12.96
2022-09-30T18:07:14.220Z,12.89
2022-09-30T18:09:42.325Z,12.85
2022-09-30T18:12:09.998Z,12.75
2022-09-30T18:14:39.813Z,12.70
2022-09-30T18:17:07.697Z,12.64
2022-09-30T18:19:38.322Z,12.57
2022-09-30T18:22:06.000Z,12.48
2022-09-30T18:24:48.349Z,12.36
2022-09-30T18:27:16.142Z,12.26
2022-09-30T18:29:45.519Z,12.17
2022-09-30T18:32:13.371Z,12.12
2022-09-30T18:34:41.877Z,12.03
2022-09-30T18:37:10.315Z,11.92
2022-09-30T18:39:38.409Z,11.83
2022-09-30T18:42:06.491Z,11.80
2022-09-30T18:44:37.799Z,11.73
2022-09-30T18:47:07.475Z,11.65
2022-09-30T18:49:35.448Z,11.41
2022-09-30T18:52:03.216Z,11.19
2022-09-30T18:54:31.088Z,11.09
2022-09-30T18:57:00.011Z,10.98
2022-09-30T18:59:27.738Z,10.95
2022-09-30T19:01:58.221Z,10.94
2022-09-30T19:04:27.746Z,10.94
2022-09-30T19:06:55.402Z,10.89
2022-09-30T19:09:26.361Z,10.85
2022-09-30T19:11:55.572Z,10.80
2022-09-30T19:14:24.292Z,10.77
2022-09-30T19:16:52.278Z,10.73
2022-09-30T19:19:22.775Z,10.72
2022-09-30T19:21:52.096Z,10.71
2022-09-30T19:24:24.049Z,10.66
2022-09-30T19:26:54.405Z,10.60
2022-09-30T19:29:23.833Z,10.60
2022-09-30T19:31:51.684Z,10.57
2022-09-30T19:34:31.002Z,10.54
2022-09-30T19:37:01.038Z,10.54
2022-09-30T19:39:41.009Z,10.52
2022-09-30T19:42:15.018Z,10.54
2022-09-30T19:44:42.917Z,10.50
2022-09-30T19:47:11.092Z,10.46
2022-09-30T19:49:38.854Z,10.44
2022-09-30T19:52:18.523Z,10.42
2022-09-30T19:54:48.347Z,10.40
2022-09-30T19:57:16.060Z,10.38
2022-09-30T19:59:44.026Z,10.34
2022-09-30T20:02:12.759Z,10.27
2022-09-30T20:04:44.039Z,10.28
2022-09-30T20:07:16.105Z,10.12
2022-09-30T20:09:43.820Z,10.03
2022-09-30T20:12:11.762Z,9.72
2022-09-30T20:14:57.549Z,9.60
2022-09-30T20:17:25.223Z,9.54
2022-09-30T20:20:07.095Z,9.31
2022-09-30T20:22:36.153Z,8.88
2022-09-30T20:25:04.460Z,8.84
2022-09-30T20:27:32.896Z,8.80
2022-09-30T20:30:00.739Z,8.48
2022-09-30T20:32:30.692Z,8.33
2022-09-30T20:34:59.041Z,8.39
2022-09-30T20:37:26.762Z,8.35
2022-09-30T20:39:55.830Z,8.47
2022-09-30T20:42:25.519Z,8.59
2022-09-30T20:44:53.173Z,8.68
2022-09-30T20:47:20.829Z,8.75
2022-09-30T20:49:48.495Z,8.73
2022-09-30T20:52:16.198Z,8.81
2022-09-30T20:54:43.843Z,8.92
2022-09-30T20:57:13.511Z,8.98
2022-09-30T20:59:41.146Z,9.06
2022-09-30T21:02:10.963Z,9.15
2022-09-30T21:04:38.755Z,9.21
2022-09-30T21:07:07.194Z,9.29
2022-09-30T21:09:35.643Z,9.35
2022-09-30T21:12:03.430Z,9.40
2022-09-30T21:14:32.423Z,9.49
2022-09-30T21:17:00.435Z,9.59
2022-09-30T21:19:28.541Z,9.59
2022-09-30T21:21:56.803Z,9.64
2022-09-30T21:24:25.833Z,9.64
2022-09-30T21:26:54.653Z,9.65
2022-09-30T21:29:23.718Z,9.66
2022-09-30T21:31:52.787Z,9.67
2022-09-30T21:34:20.477Z,9.68
2022-09-30T21:36:49.194Z,9.66
2022-09-30T21:39:16.851Z,9.71
2022-09-30T21:41:44.702Z,9.78
2022-09-30T21:44:12.378Z,9.63
2022-09-30T21:46:44.745Z,9.64
2022-09-30T21:49:18.986Z,9.58
2022-09-30T21:51:46.707Z,9.52
2022-09-30T21:54:14.773Z,9.47
2022-09-30T21:56:43.638Z,9.29
2022-09-30T21:59:11.972Z,9.08
2022-09-30T22:01:39.775Z,9.16
2022-09-30T22:04:08.167Z,9.09
2022-09-30T22:06:37.225Z,8.82
2022-09-30T22:09:05.216Z,8.74
2022-09-30T22:11:33.398Z,8.63
2022-09-30T22:14:01.653Z,8.55
2022-09-30T22:16:34.696Z,8.51
2022-09-30T22:19:04.721Z,8.26
2022-09-30T22:21:34.513Z,8.20
2022-09-30T22:24:06.233Z,8.22
2022-09-30T22:26:34.220Z,8.23
2022-09-30T22:29:05.321Z,8.15
2022-09-30T22:31:34.226Z,8.14
2022-09-30T22:34:21.314Z,7.99
2022-09-30T22:37:06.565Z,8.01
2022-09-30T22:39:36.033Z,8.16
2022-09-30T22:42:04.765Z,8.20
2022-09-30T22:44:34.577Z,8.16
2022-09-30T22:47:02.840Z,8.13
2022-09-30T22:49:32.019Z,8.16
2022-09-30T22:52:00.955Z,8.30
2022-09-30T22:54:29.237Z,8.32
2022-09-30T22:56:59.570Z,8.38
2022-09-30T22:59:28.366Z,8.40
2022-09-30T23:01:56.416Z,8.43
2022-09-30T23:04:26.684Z,8.47
2022-09-30T23:06:56.334Z,8.59
2022-09-30T23:09:24.133Z,8.60
2022-09-30T23:11:53.595Z,8.60
2022-09-30T23:14:23.020Z,8.68
2022-09-30T23:16:51.425Z,8.75
2022-09-30T23:19:20.109Z,8.72
2022-09-30T23:21:48.339Z,8.65
2022-09-30T23:24:16.712Z,8.70
2022-09-30T23:26:44.461Z,8.69
2022-09-30T23:29:14.438Z,8.70
2022-09-30T23:32:23.022Z,8.69
2022-09-30T23:34:52.346Z,8.77
2022-09-30T23:37:20.053Z,8.80
2022-09-30T23:39:48.319Z,8.81
2022-09-30T23:42:16.386Z,8.87
2022-09-30T23:44:44.318Z,8.91
2022-09-30T23:47:21.522Z,8.96
2022-09-30T23:49:50.419Z,9.08
2022-09-30T23:52:19.719Z,9.17
2022-09-30T23:54:47.814Z,9.22
2022-09-30T23:57:15.528Z,9.27
2022-09-30T23:59:43.198Z,9.29
